Time;durP1;ratioP1;P1;durP2;ratioP2;P2;SDS_P1;SDS_P2;PMS_P1;PMS_P2;Temp;Humidity;BMP_temperature;BMP_pressure;BME280_temperature;BME280_humidity;BME280_pressure;Samples;Min_cycle;Max_cycle;Signal;HPM_P1;HPM_P2
2023/01/22 00:01:15;;;;;;;4.15;3.38;;;;;;;-3.15;100.00;103637.47;4980308;28;20042;-71
2023/01/22 00:03:41;;;;;;;3.92;3.47;;;;;;;-3.15;100.00;103637.47;4979739;28;20034;-74
2023/01/22 00:06:08;;;;;;;3.83;3.13;;;;;;;-3.08;100.00;103623.56;4979874;28;20137;-71
2023/01/22 00:08:34;;;;;;;3.58;3.28;;;;;;;-3.03;100.00;103631.34;4978697;28;20269;-73
2023/01/22 00:11:00;;;;;;;3.27;2.97;;;;;;;-2.94;100.00;103636.53;4981375;28;20121;-71
2023/01/22 00:13:26;;;;;;;3.65;3.35;;;;;;;-2.89;100.00;103635.66;4987535;28;20090;-73
2023/01/22 00:15:53;;;;;;;5.13;3.22;;;;;;;-2.88;100.00;103631.31;4986173;28;20085;-73
2023/01/22 00:18:19;;;;;;;3.67;3.38;;;;;;;-2.81;100.00;103633.00;4982434;28;20042;-74
2023/01/22 00:20:53;;;;;;;3.43;3.13;;;;;;;-2.76;100.00;103635.59;4959537;28;20034;-72
2023/01/22 00:23:19;;;;;;;5.03;3.20;;;;;;;-2.72;100.00;103626.88;4975910;28;20042;-71
2023/01/22 00:25:45;;;;;;;3.33;3.03;;;;;;;-2.65;100.00;103625.97;4976401;28;20081;-72
2023/01/22 00:28:11;;;;;;;5.60;3.78;;;;;;;-2.56;100.00;103628.53;4976044;28;20034;-73
2023/01/22 00:30:37;;;;;;;3.38;2.83;;;;;;;-2.48;100.00;103637.19;4975912;28;20035;-70
2023/01/22 00:33:03;;;;;;;3.17;2.87;;;;;;;-2.57;100.00;103632.03;4975903;28;20042;-72
2023/01/22 00:35:29;;;;;;;3.28;3.08;;;;;;;-2.64;100.00;103628.56;4976091;28;20447;-70
2023/01/22 00:37:55;;;;;;;4.00;3.33;;;;;;;-2.78;100.00;103616.47;4959049;28;20069;-70
2023/01/22 00:40:20;;;;;;;4.57;4.17;;;;;;;-2.74;100.00;103644.28;4975725;28;20031;-72
2023/01/22 00:42:46;;;;;;;3.77;3.33;;;;;;;-2.83;100.00;103630.41;4975679;28;20031;-70
2023/01/22 00:45:12;;;;;;;4.10;3.40;;;;;;;-2.79;100.00;103635.59;4975722;28;20038;-73
2023/01/22 00:47:39;;;;;;;3.95;3.50;;;;;;;-2.75;100.00;103635.59;4958462;28;20074;-69
2023/01/22 00:50:05;;;;;;;5.40;4.22;;;;;;;-2.89;100.00;103620.00;4975358;28;20046;-71
2023/01/22 00:52:36;;;;;;;5.97;4.70;;;;;;;-2.77;100.00;103642.56;4975300;28;20047;-71
2023/01/22 00:55:02;;;;;;;4.40;4.00;;;;;;;-2.79;100.00;103635.59;4975583;28;20479;-72
2023/01/22 00:57:29;;;;;;;4.32;3.92;;;;;;;-2.79;100.00;103640.81;4975606;28;20034;-70
2023/01/22 00:59:54;;;;;;;4.37;3.97;;;;;;;-2.77;100.00;103639.94;4976010;28;20026;-71
2023/01/22 01:02:19;;;;;;;4.67;4.27;;;;;;;-2.77;100.00;103645.16;4975943;28;20419;-70
2023/01/22 01:04:45;;;;;;;4.43;4.00;;;;;;;-2.73;100.00;103649.47;4975866;28;20027;-70
2023/01/22 01:07:10;;;;;;;4.60;3.83;;;;;;;-2.75;100.00;103643.41;4975891;28;20077;-71
2023/01/22 01:09:36;;;;;;;3.90;3.60;;;;;;;-2.71;100.00;103652.09;4975047;28;20041;-69
2023/01/22 01:12:02;;;;;;;4.70;4.23;;;;;;;-2.68;100.00;103652.06;4975214;28;20069;-70
2023/01/22 01:14:27;;;;;;;4.70;4.30;;;;;;;-2.76;100.00;103656.47;4975111;28;20018;-71
2023/01/22 01:16:53;;;;;;;3.73;3.43;;;;;;;-2.87;100.00;103633.03;4975017;28;20034;-71
2023/01/22 01:19:21;;;;;;;4.43;4.03;;;;;;;-2.82;100.00;103639.97;4974958;28;20038;-70
2023/01/22 01:21:47;;;;;;;4.05;3.60;;;;;;;-2.77;100.00;103636.47;4975253;28;20034;-70
2023/01/22 01:24:12;;;;;;;3.93;3.53;;;;;;;-2.69;100.00;103642.50;4974861;28;20027;-71
2023/01/22 01:26:39;;;;;;;3.10;2.80;;;;;;;-2.74;100.00;103639.94;4975051;28;20019;-71
2023/01/22 01:29:08;;;;;;;3.35;3.15;;;;;;;-2.76;100.00;103651.25;4957573;28;20042;-71
2023/01/22 01:31:35;;;;;;;2.92;2.67;;;;;;;-2.78;100.00;103647.78;4974712;28;20030;-70
2023/01/22 01:34:01;;;;;;;3.72;2.80;;;;;;;-2.83;100.00;103648.66;4957410;28;20031;-69
2023/01/22 01:36:26;;;;;;;2.60;2.40;;;;;;;-2.85;100.00;103652.16;4974781;28;20050;-70
2023/01/22 01:38:53;;;;;;;4.27;3.87;;;;;;;-2.93;100.00;103643.47;4974720;28;20031;-72
2023/01/22 01:41:21;;;;;;;3.17;2.88;;;;;;;-2.90;100.00;103651.28;4957273;28;20435;-71
2023/01/22 01:44:17;;;;;;;3.67;3.13;;;;;;;-2.91;100.00;103650.41;4974632;28;20027;-70
2023/01/22 01:47:06;;;;;;;3.92;2.85;;;;;;;-2.88;100.00;103652.19;4975032;28;20037;-71
2023/01/22 01:49:47;;;;;;;5.00;3.22;;;;;;;-2.89;100.00;103646.09;4974521;28;20076;-70
2023/01/22 01:52:13;;;;;;;3.90;2.70;;;;;;;-2.79;100.00;103657.34;4974576;28;20106;-71
2023/01/22 01:54:44;;;;;;;3.70;3.40;;;;;;;-2.78;100.00;103666.03;4974463;28;20046;-70
2023/01/22 01:57:15;;;;;;;4.53;2.92;;;;;;;-2.87;100.00;103659.13;4957493;28;20104;-70
2023/01/22 01:59:42;;;;;;;5.63;3.15;;;;;;;-2.90;100.00;103667.78;4974383;28;20471;-70
2023/01/22 02:02:07;;;;;;;4.15;2.95;;;;;;;-2.87;100.00;103659.13;4974257;28;20040;-70
2023/01/22 02:04:33;;;;;;;6.87;3.80;;;;;;;-2.79;100.00;103667.78;4973765;28;20459;-69
2023/01/22 02:06:59;;;;;;;3.88;3.58;;;;;;;-2.82;100.00;103650.41;4973948;28;20121;-71
2023/01/22 02:09:26;;;;;;;3.10;2.90;;;;;;;-2.77;100.00;103671.25;4956788;28;20130;-71
2023/01/22 02:11:52;;;;;;;3.55;3.25;;;;;;;-2.75;100.00;103663.41;4957903;28;20101;-72
2023/01/22 02:14:23;;;;;;;3.45;3.17;;;;;;;-2.75;100.00;103653.84;4976379;28;20030;-70
2023/01/22 02:17:05;;;;;;;3.33;3.03;;;;;;;-2.81;100.00;103649.53;4975219;28;20026;-70
2023/01/22 02:19:31;;;;;;;3.50;2.72;;;;;;;-2.67;100.00;103661.63;4974750;28;20057;-69
2023/01/22 02:21:56;;;;;;;2.43;2.30;;;;;;;-2.64;100.00;103672.03;4958156;28;20447;-70
2023/01/22 02:24:22;;;;;;;4.13;2.57;;;;;;;-2.97;100.00;103620.91;4956995;28;20026;-70
2023/01/22 02:26:47;;;;;;;2.80;2.60;;;;;;;-2.86;100.00;103666.94;4973799;28;20030;-70
2023/01/22 02:29:14;;;;;;;2.70;2.50;;;;;;;-2.88;100.00;103673.91;4973725;28;20467;-72
2023/01/22 02:31:41;;;;;;;4.72;3.05;;;;;;;-2.90;100.00;103670.41;4973653;28;20096;-70
2023/01/22 02:34:08;;;;;;;4.10;3.08;;;;;;;-2.88;100.00;103667.81;4973474;28;20045;-70
2023/01/22 02:36:35;;;;;;;3.85;3.55;;;;;;;-2.91;100.00;103657.38;4973860;28;20683;-71
2023/01/22 02:39:01;;;;;;;4.55;3.20;;;;;;;-2.89;100.00;103659.13;4973758;28;20142;-71
2023/01/22 02:41:27;;;;;;;3.83;3.50;;;;;;;-2.81;100.00;103662.56;4973675;28;20046;-70
2023/01/22 02:43:53;;;;;;;3.70;3.40;;;;;;;-2.74;100.00;103672.97;4973399;28;20031;-70
2023/01/22 02:46:19;;;;;;;3.80;3.30;;;;;;;-2.79;100.00;103661.69;4973477;28;20026;-69
2023/01/22 02:48:44;;;;;;;6.03;3.50;;;;;;;-2.83;100.00;103653.00;4973280;28;20035;-71
2023/01/22 02:51:10;;;;;;;4.50;4.10;;;;;;;-2.76;100.00;103657.31;4973516;28;20058;-71
2023/01/22 02:53:39;;;;;;;4.40;4.00;;;;;;;-2.73;100.00;103656.44;4973620;28;20122;-70
2023/01/22 02:56:07;;;;;;;4.00;3.60;;;;;;;-2.67;100.00;103661.63;4973694;28;20039;-71
2023/01/22 02:58:33;;;;;;;5.72;4.95;;;;;;;-2.74;100.00;103649.50;4973194;28;20120;-70
2023/01/22 03:01:20;;;;;;;9.20;4.00;;;;;;;-2.61;100.00;103662.47;4973104;28;20063;-72
2023/01/22 03:03:47;;;;;;;4.40;3.72;;;;;;;-2.65;100.00;103675.53;4973350;28;20143;-71
2023/01/22 03:06:20;;;;;;;6.10;3.97;;;;;;;-2.66;100.00;103677.28;4973302;28;20034;-71
2023/01/22 03:08:51;;;;;;;5.95;4.63;;;;;;;-2.94;100.00;103629.56;4973204;28;20595;-71
2023/01/22 03:11:16;;;;;;;4.22;3.83;;;;;;;-2.64;100.00;103672.03;4972634;28;20038;-70
2023/01/22 03:21:55;;;;;;;3.83;3.50;;;;;;;-2.83;100.00;103689.53;4972780;28;20463;-70
2023/01/22 03:24:20;;;;;;;4.00;3.60;;;;;;;-2.84;100.00;103688.66;4973030;28;20035;-70
2023/01/22 03:26:46;;;;;;;4.53;3.27;;;;;;;-2.87;100.00;103683.47;4973093;28;20057;-70
2023/01/22 03:29:11;;;;;;;4.93;3.30;;;;;;;-2.84;100.00;103691.28;4973038;28;20035;-70
2023/01/22 03:31:37;;;;;;;4.37;3.43;;;;;;;-2.83;100.00;103682.56;4973141;28;20027;-70
2023/01/22 03:34:02;;;;;;;2.80;2.60;;;;;;;-2.86;100.00;103684.31;4973020;28;20434;-70
2023/01/22 03:36:28;;;;;;;3.53;3.23;;;;;;;-2.84;100.00;103691.28;4972937;28;20049;-70
2023/01/22 03:38:53;;;;;;;2.87;2.67;;;;;;;-2.82;100.00;103694.75;4972939;28;20146;-70
2023/01/22 03:41:19;;;;;;;2.80;2.60;;;;;;;-2.79;100.00;103695.59;4972749;28;20030;-69
2023/01/22 03:43:46;;;;;;;2.97;2.77;;;;;;;-2.81;100.00;103706.91;4955335;28;20073;-71
2023/01/22 03:46:16;;;;;;;3.60;2.95;;;;;;;-2.88;100.00;103705.19;4972802;28;20481;-71
2023/01/22 03:48:43;;;;;;;2.85;2.65;;;;;;;-2.97;100.00;103705.19;4972832;28;20459;-70
2023/01/22 03:51:14;;;;;;;3.03;2.80;;;;;;;-3.04;100.00;103698.28;4972353;28;20059;-70
2023/01/22 03:53:41;;;;;;;2.47;2.28;;;;;;;-3.08;100.00;103695.69;4955635;28;20039;-70
2023/01/22 03:56:11;;;;;;;5.65;2.78;;;;;;;-3.02;100.00;103704.34;4972921;28;20506;-71
2023/01/22 03:58:37;;;;;;;3.28;2.97;;;;;;;-3.04;100.00;103697.41;4972644;28;20117;-71
2023/01/22 04:01:06;;;;;;;2.83;2.63;;;;;;;-2.94;100.00;103704.31;4972785;28;20027;-69
2023/01/22 04:03:32;;;;;;;3.13;2.90;;;;;;;-3.03;100.00;103700.00;4955309;28;20393;-70
2023/01/22 04:06:00;;;;;;;3.10;2.90;;;;;;;-3.01;100.00;103695.66;4972733;28;20034;-71
2023/01/22 04:08:28;;;;;;;3.58;3.28;;;;;;;-3.10;100.00;103682.66;4972608;28;20023;-69
2023/01/22 04:10:55;;;;;;;2.88;2.65;;;;;;;-2.98;100.00;103698.25;4972697;28;20085;-71
2023/01/22 04:13:22;;;;;;;4.70;4.25;;;;;;;-2.94;100.00;103707.78;4972313;28;20038;-71
2023/01/22 04:15:47;;;;;;;2.90;2.70;;;;;;;-2.96;100.00;103703.47;4971459;28;20030;-69
2023/01/22 04:18:13;;;;;;;2.67;2.33;;;;;;;-2.98;100.00;103710.41;4972225;28;20138;-71
2023/01/22 04:20:39;;;;;;;4.57;2.73;;;;;;;-2.95;100.00;103719.09;4972936;28;20035;-70
2023/01/22 04:23:06;;;;;;;2.60;2.40;;;;;;;-3.04;100.00;103711.31;4972977;28;20096;-70
2023/01/22 04:25:32;;;;;;;2.65;2.45;;;;;;;-2.98;100.00;103711.28;4975629;28;20045;-71
2023/01/22 04:27:58;;;;;;;2.22;2.03;;;;;;;-2.96;100.00;103725.19;4975094;28;20029;-71
2023/01/22 04:30:23;;;;;;;3.30;2.70;;;;;;;-2.98;100.00;103726.06;4976535;28;20394;-70
2023/01/22 04:32:49;;;;;;;2.63;2.43;;;;;;;-3.03;100.00;103723.47;4977477;28;20443;-70
2023/01/22 04:35:14;;;;;;;2.47;2.27;;;;;;;-3.06;100.00;103728.69;4975840;28;20416;-70
2023/01/22 04:37:40;;;;;;;4.00;2.80;;;;;;;-3.00;100.00;103725.19;4975951;28;20023;-71
2023/01/22 04:40:07;;;;;;;3.20;2.90;;;;;;;-3.06;100.00;103736.53;4975993;28;20031;-71
2023/01/22 04:42:32;;;;;;;4.93;3.40;;;;;;;-3.05;100.00;103737.38;4975038;28;20033;-69
2023/01/22 04:44:57;;;;;;;3.30;3.00;;;;;;;-3.07;100.00;103732.19;4975774;28;20180;-71
2023/01/22 04:47:23;;;;;;;3.10;2.80;;;;;;;-3.01;100.00;103736.50;4975373;28;20027;-70
2023/01/22 04:49:49;;;;;;;2.63;2.43;;;;;;;-2.98;100.00;103734.75;4975570;28;20378;-70
2023/01/22 04:52:15;;;;;;;2.93;2.73;;;;;;;-2.98;100.00;103732.16;4975192;28;20403;-70
2023/01/22 04:54:42;;;;;;;3.65;2.30;;;;;;;-2.95;100.00;103739.09;4975384;28;20114;-71
2023/01/22 04:57:08;;;;;;;2.97;2.78;;;;;;;-2.94;100.00;103736.47;4975385;28;20038;-69
2023/01/22 04:59:34;;;;;;;3.28;2.22;;;;;;;-2.91;100.00;103735.59;4975262;28;20023;-70
2023/01/22 05:01:59;;;;;;;2.80;2.57;;;;;;;-2.89;100.00;103734.75;4975246;28;20092;-71
2023/01/22 05:04:25;;;;;;;3.33;2.80;;;;;;;-2.91;100.00;103746.91;4957943;28;20118;-71
2023/01/22 05:06:50;;;;;;;2.50;2.30;;;;;;;-2.86;100.00;103749.53;4958060;28;20419;-71
2023/01/22 05:09:16;;;;;;;3.10;2.47;;;;;;;-2.90;100.00;103753.84;4975351;28;20042;-72
2023/01/22 05:11:42;;;;;;;3.07;2.73;;;;;;;-2.93;100.00;103756.47;4975084;28;20027;-71
2023/01/22 05:14:07;;;;;;;2.70;2.50;;;;;;;-2.98;100.00;103760.84;4975276;28;20026;-72
2023/01/22 05:16:33;;;;;;;2.47;2.27;;;;;;;-3.00;100.00;103751.28;4974963;28;20058;-72
2023/01/22 05:18:58;;;;;;;2.50;2.30;;;;;;;-3.05;100.00;103738.25;4975106;28;20478;-71
2023/01/22 05:21:24;;;;;;;2.63;2.43;;;;;;;-3.02;100.00;103753.88;4975178;28;20485;-70
2023/01/22 05:23:49;;;;;;;2.50;2.13;;;;;;;-3.05;100.00;103755.63;4979656;28;20031;-71
2023/01/22 05:26:15;;;;;;;2.57;2.37;;;;;;;-3.05;100.00;103755.63;4978352;28;20102;-70
2023/01/22 05:28:41;;;;;;;4.33;2.33;;;;;;;-3.00;100.00;103761.72;4977820;28;20475;-71
2023/01/22 05:31:07;;;;;;;2.73;2.40;;;;;;;-2.96;100.00;103764.31;4958256;28;20030;-71
2023/01/22 05:33:33;;;;;;;2.72;2.40;;;;;;;-2.98;100.00;103766.03;4974952;28;20033;-71
2023/01/22 05:36:00;;;;;;;2.80;2.50;;;;;;;-2.91;100.00;103765.16;4974971;28;20034;-71
2023/01/22 05:38:27;;;;;;;2.60;2.30;;;;;;;-2.86;100.00;103771.25;4974753;28;20030;-71
2023/01/22 05:40:53;;;;;;;2.35;2.22;;;;;;;-2.80;100.00;103765.16;4974140;28;20039;-70
2023/01/22 05:43:18;;;;;;;6.07;5.17;;;;;;;-2.85;100.00;103777.34;4974486;28;20046;-72
2023/01/22 05:45:44;;;;;;;2.40;2.20;;;;;;;-2.93;100.00;103764.28;4974385;28;20037;-71
2023/01/22 05:48:09;;;;;;;2.97;2.77;;;;;;;-2.96;100.00;103774.72;4974677;28;20034;-71
2023/01/22 05:50:35;;;;;;;2.40;2.20;;;;;;;-3.20;100.00;103730.44;4957132;28;20541;-72
2023/01/22 05:53:02;;;;;;;3.53;2.70;;;;;;;-2.87;100.00;103779.97;4974491;28;20042;-70
2023/01/22 05:55:27;;;;;;;2.70;2.50;;;;;;;-2.88;100.00;103790.41;4957423;28;20055;-71
2023/01/22 05:57:55;;;;;;;3.17;2.33;;;;;;;-2.89;100.00;103786.91;4974471;28;20082;-72
2023/01/22 06:00:20;;;;;;;2.93;2.73;;;;;;;-2.78;100.00;103784.28;4958011;28;20126;-72
2023/01/22 06:02:46;;;;;;;2.73;2.53;;;;;;;-2.73;100.00;103789.47;4974468;28;20019;-72
2023/01/22 06:05:11;;;;;;;2.13;1.93;;;;;;;-2.85;100.00;103791.25;4974824;28;20030;-71
2023/01/22 06:07:37;;;;;;;2.50;2.30;;;;;;;-2.94;100.00;103811.25;4974425;28;20352;-73
2023/01/22 06:10:02;;;;;;;3.03;2.23;;;;;;;-3.29;100.00;103748.69;4974336;28;20088;-73
2023/01/22 06:12:28;;;;;;;2.55;1.83;;;;;;;-3.13;100.00;103777.38;4974132;28;20034;-71
2023/01/22 06:14:54;;;;;;;4.23;3.83;;;;;;;-3.18;100.00;103766.09;4940774;28;20031;-71
2023/01/22 06:17:20;;;;;;;2.20;2.00;;;;;;;-3.13;100.00;103786.94;4974293;28;20037;-72
2023/01/22 06:19:46;;;;;;;2.05;1.85;;;;;;;-3.05;100.00;103799.97;4974216;28;20543;-71
2023/01/22 06:22:11;;;;;;;2.07;1.90;;;;;;;-3.02;100.00;103799.97;4974153;28;20078;-72
2023/01/22 06:24:37;;;;;;;1.73;1.63;;;;;;;-3.04;100.00;103802.56;4973891;28;20030;-73
2023/01/22 06:27:03;;;;;;;2.00;1.80;;;;;;;-3.09;100.00;103814.75;4973987;28;20018;-72
2023/01/22 06:29:29;;;;;;;2.38;2.00;;;;;;;-3.15;100.00;103813.00;4973809;28;20027;-71
2023/01/22 06:31:55;;;;;;;2.27;2.07;;;;;;;-3.16;100.00;103813.88;4973996;28;20037;-70
2023/01/22 06:34:21;;;;;;;1.98;1.77;;;;;;;-3.20;100.00;103811.25;4974127;28;20061;-70
2023/01/22 06:36:46;;;;;;;2.10;1.90;;;;;;;-3.21;100.00;103819.94;4973801;28;20070;-72
2023/01/22 06:39:12;;;;;;;2.40;2.20;;;;;;;-3.11;100.00;103819.09;4974037;28;20026;-72
2023/01/22 06:41:37;;;;;;;2.27;2.07;;;;;;;-3.04;100.00;103823.44;4973568;28;20041;-71
2023/01/22 06:44:03;;;;;;;2.47;2.20;;;;;;;-3.04;100.00;103819.94;4973292;28;20034;-73
2023/01/22 06:46:28;;;;;;;2.43;2.20;;;;;;;-2.97;100.00;103829.50;4974058;28;20054;-72
2023/01/22 06:48:54;;;;;;;2.73;2.53;;;;;;;-3.09;100.00;103809.53;4974584;28;20038;-73
2023/01/22 06:51:20;;;;;;;2.23;2.13;;;;;;;-3.13;100.00;103816.47;4974508;28;20471;-72
2023/01/22 06:53:46;;;;;;;2.50;2.30;;;;;;;-2.96;100.00;103836.44;4977253;28;20042;-76
2023/01/22 06:56:12;;;;;;;3.03;2.50;;;;;;;-3.03;100.00;103840.81;4960271;28;20023;-76
2023/01/22 06:58:38;;;;;;;2.70;2.50;;;;;;;-3.06;100.00;103829.50;4975824;28;20387;-76
2023/01/22 07:01:04;;;;;;;2.00;1.90;;;;;;;-3.04;100.00;103849.50;4974911;28;20031;-74
2023/01/22 07:03:30;;;;;;;1.83;1.73;;;;;;;-3.05;100.00;103831.25;4975282;28;20447;-74
2023/01/22 07:05:58;;;;;;;2.50;2.30;;;;;;;-2.96;100.00;103836.44;4977905;28;20125;-76
2023/01/22 07:08:24;;;;;;;3.70;2.63;;;;;;;-2.93;100.00;103842.53;4981246;28;20079;-72
2023/01/22 07:10:50;;;;;;;2.53;2.33;;;;;;;-2.93;100.00;103842.53;4980725;28;20123;-71
2023/01/22 07:13:15;;;;;;;2.55;2.22;;;;;;;-2.95;100.00;103839.06;4975051;28;20146;-71
2023/01/22 07:15:41;;;;;;;2.10;1.97;;;;;;;-2.92;100.00;103839.06;4988032;28;20039;-71
2023/01/22 07:18:09;;;;;;;2.95;2.30;;;;;;;-2.91;100.00;103845.13;4986941;28;20382;-71
2023/01/22 07:20:36;;;;;;;2.17;2.03;;;;;;;-2.94;100.00;103856.44;4986833;28;20043;-71
2023/01/22 07:23:01;;;;;;;2.50;2.30;;;;;;;-3.04;100.00;103843.41;4963929;28;20042;-73
2023/01/22 07:25:27;;;;;;;1.97;1.83;;;;;;;-3.20;100.00;103819.94;4987391;28;20039;-74
2023/01/22 07:28:00;;;;;;;1.98;1.88;;;;;;;-3.00;100.00;103856.44;4994472;28;20029;-74
2023/01/22 07:30:26;;;;;;;2.10;1.90;;;;;;;-3.15;100.00;103838.22;4995860;28;20038;-73
2023/01/22 07:32:51;;;;;;;5.33;1.93;;;;;;;-2.99;100.00;103860.78;4975070;28;20074;-75
2023/01/22 07:35:17;;;;;;;2.00;1.90;;;;;;;-2.97;100.00;103866.88;4976801;28;20537;-75
2023/01/22 07:38:05;;;;;;;1.80;1.70;;;;;;;-3.00;100.00;103861.66;4984444;28;20411;-76
2023/01/22 07:41:06;;;;;;;4.95;2.50;;;;;;;-3.08;100.00;103852.97;4951294;28;20133;-76
2023/01/22 07:47:12;;;;;;;2.38;2.17;;;;;;;-3.05;100.00;103858.19;4974020;28;20130;-75
2023/01/22 07:49:38;;;;;;;2.27;2.07;;;;;;;-2.90;100.00;103875.56;4957472;28;20094;-71
2023/01/22 07:52:04;;;;;;;2.70;2.50;;;;;;;-2.92;100.00;103880.78;4973766;28;20487;-72
2023/01/22 07:54:31;;;;;;;1.85;1.75;;;;;;;-2.93;100.00;103889.47;4973495;28;20041;-76
2023/01/22 07:56:56;;;;;;;2.00;1.90;;;;;;;-2.98;100.00;103885.13;4973719;28;20049;-77
2023/01/22 07:59:23;;;;;;;3.53;2.42;;;;;;;-2.96;100.00;103884.25;4972642;28;20447;-77
2023/01/22 08:01:59;;;;;;;2.60;2.40;;;;;;;-2.96;100.00;103881.66;4955690;28;20062;-76
2023/01/22 08:04:49;;;;;;;2.03;1.92;;;;;;;-3.06;100.00;103855.59;4943742;28;20117;-77
2023/01/22 08:07:16;;;;;;;3.22;2.28;;;;;;;-2.96;100.00;103872.97;4976681;28;20030;-77
2023/01/22 08:09:42;;;;;;;2.63;2.42;;;;;;;-2.90;100.00;103883.38;4958969;28;20038;-75
2023/01/22 08:12:08;;;;;;;2.65;2.42;;;;;;;-2.81;100.00;103891.22;4976394;28;20031;-73
2023/01/22 08:14:33;;;;;;;3.97;3.13;;;;;;;-2.73;100.00;103886.88;4977030;28;20022;-75
2023/01/22 08:16:59;;;;;;;4.13;2.50;;;;;;;-2.69;100.00;103882.50;4977042;28;20034;-75
2023/01/22 08:19:24;;;;;;;2.50;2.30;;;;;;;-2.59;100.00;103900.78;4977066;28;20092;-75
2023/01/22 08:21:53;;;;;;;2.50;2.30;;;;;;;-2.56;100.00;103892.97;4976644;28;20051;-76
2023/01/22 08:24:18;;;;;;;4.90;2.65;;;;;;;-2.60;100.00;103885.13;4943232;28;20035;-76
2023/01/22 08:26:44;;;;;;;5.00;2.63;;;;;;;-2.46;100.00;103904.25;4976809;28;20476;-76
2023/01/22 08:29:09;;;;;;;2.63;2.30;;;;;;;-2.51;99.98;103901.63;4976645;28;20035;-74
2023/01/22 08:31:35;;;;;;;3.23;2.50;;;;;;;-2.54;99.60;103887.72;4976411;28;20451;-76
2023/01/22 08:34:01;;;;;;;3.00;2.80;;;;;;;-2.61;99.16;103889.44;4986033;28;20090;-76
2023/01/22 08:36:27;;;;;;;2.38;2.17;;;;;;;-2.60;100.00;103904.28;4984729;28;20023;-71
2023/01/22 08:38:52;;;;;;;2.40;2.20;;;;;;;-2.59;100.00;103899.91;4984843;28;20057;-74
2023/01/22 08:41:18;;;;;;;3.77;2.30;;;;;;;-2.55;100.00;103896.44;4989675;28;20034;-74
2023/01/22 08:43:43;;;;;;;2.27;2.07;;;;;;;-2.53;99.81;103913.81;4959860;28;20023;-73
2023/01/22 08:46:09;;;;;;;1.90;1.80;;;;;;;-2.53;100.00;103899.91;4976247;28;20359;-76
2023/01/22 08:48:35;;;;;;;2.10;1.90;;;;;;;-2.78;99.31;103862.53;4976317;28;20116;-72
2023/01/22 08:51:01;;;;;;;2.53;2.33;;;;;;;-2.51;99.47;103900.78;4958712;28;20046;-74
2023/01/22 08:53:31;;;;;;;3.27;2.43;;;;;;;-2.36;99.72;103915.53;4977332;28;20050;-73
2023/01/22 08:55:56;;;;;;;1.95;1.85;;;;;;;-2.48;99.47;103911.19;4978190;28;20038;-75
2023/01/22 08:58:24;;;;;;;2.30;2.10;;;;;;;-2.74;99.02;103869.47;4977383;28;20382;-74
2023/01/22 09:00:50;;;;;;;2.30;2.10;;;;;;;-2.52;99.04;103920.78;4976386;28;20128;-74
2023/01/22 09:03:15;;;;;;;2.23;2.03;;;;;;;-2.56;99.04;103915.56;4976630;28;20463;-76
2023/01/22 09:05:41;;;;;;;2.27;2.07;;;;;;;-2.63;99.28;103903.38;4976964;28;20054;-75
2023/01/22 09:08:07;;;;;;;2.97;1.70;;;;;;;-2.68;99.17;103915.56;4964400;28;20018;-75
2023/01/22 09:10:33;;;;;;;1.83;1.50;;;;;;;-2.76;100.00;103918.19;4994832;28;20042;-75
2023/01/22 09:12:59;;;;;;;1.90;1.80;;;;;;;-2.73;100.00;103914.69;4994755;28;20473;-75
2023/01/22 09:15:26;;;;;;;2.00;1.80;;;;;;;-2.68;100.00;103906.00;4995092;28;20035;-75
2023/01/22 09:17:51;;;;;;;2.47;2.28;;;;;;;-2.59;100.00;103911.22;4995005;28;20041;-76
2023/01/22 09:20:17;;;;;;;2.07;1.87;;;;;;;-2.56;100.00;103910.34;4994842;28;20030;-76
2023/01/22 09:22:47;;;;;;;2.23;1.90;;;;;;;-2.52;100.00;103915.56;4994906;28;20454;-75
2023/01/22 09:25:13;;;;;;;2.17;1.98;;;;;;;-2.55;99.65;103925.13;4995171;28;20462;-75
2023/01/22 09:27:38;;;;;;;2.27;2.07;;;;;;;-2.54;100.00;103919.03;4995635;28;20127;-74
2023/01/22 09:30:04;;;;;;;2.87;2.37;;;;;;;-2.67;99.38;103886.84;4994572;28;20462;-73
2023/01/22 09:32:30;;;;;;;3.30;1.73;;;;;;;-2.45;98.71;103912.94;4994881;28;20030;-75
2023/01/22 09:34:55;;;;;;;2.40;2.10;;;;;;;-2.47;98.59;103912.94;4977506;28;20026;-75
2023/01/22 09:37:21;;;;;;;2.50;1.67;;;;;;;-2.44;99.46;103914.66;4995225;28;20493;-75
2023/01/22 09:39:48;;;;;;;2.10;1.90;;;;;;;-2.42;98.53;103923.38;4994907;28;20085;-74
2023/01/22 09:42:24;;;;;;;26.25;14.73;;;;;;;-2.73;99.12;103867.75;4994912;28;20030;-76
2023/01/22 09:44:57;;;;;;;2.67;2.47;;;;;;;-2.40;98.82;103917.28;4994992;28;20034;-75
2023/01/22 09:47:32;;;;;;;2.22;2.03;;;;;;;-2.39;98.10;103926.84;4994754;28;20022;-77
2023/01/22 09:50:06;;;;;;;1.85;1.75;;;;;;;-2.36;98.36;103925.97;4994894;28;20085;-74
2023/01/22 09:52:37;;;;;;;2.28;1.98;;;;;;;-2.40;98.62;103925.09;4994171;28;20042;-75
2023/01/22 09:55:11;;;;;;;2.20;2.10;;;;;;;-2.40;98.81;103921.63;4994394;28;20038;-74
2023/01/22 09:57:46;;;;;;;1.90;1.80;;;;;;;-2.39;98.47;103923.38;4993717;28;20022;-73
2023/01/22 10:00:18;;;;;;;1.60;1.50;;;;;;;-2.48;98.42;103900.75;4989468;28;20019;-73
2023/01/22 10:02:50;;;;;;;1.75;1.65;;;;;;;-2.31;97.68;103921.63;4974487;28;20137;-71
2023/01/22 10:05:34;;;;;;;1.80;1.70;;;;;;;-2.44;97.28;103923.38;4974389;28;20026;-76
2023/01/22 10:08:08;;;;;;;2.03;1.88;;;;;;;-2.54;97.89;103925.13;4974277;28;20086;-71
2023/01/22 10:10:34;;;;;;;2.15;1.95;;;;;;;-2.50;98.24;103931.22;4973976;28;20486;-72
2023/01/22 10:13:05;;;;;;;3.33;2.00;;;;;;;-2.62;98.44;103915.53;4974612;28;20050;-72
2023/01/22 10:15:30;;;;;;;2.30;2.10;;;;;;;-2.56;97.90;103915.56;4957386;28;20062;-71
2023/01/22 10:17:56;;;;;;;1.80;1.70;;;;;;;-2.44;98.22;103925.97;4973802;28;20490;-71
2023/01/22 10:20:23;;;;;;;2.40;2.20;;;;;;;-2.46;97.76;103912.06;4956701;28;20097;-72
2023/01/22 10:22:52;;;;;;;2.50;2.30;;;;;;;-2.42;98.06;103912.94;4973855;28;20113;-74
2023/01/22 10:25:17;;;;;;;;;;;;;;;-2.34;98.09;103914.66;4973969;28;20097;-72
2023/01/22 10:27:45;;;;;;;2.10;1.87;;;;;;;-2.38;97.74;103899.00;4973869;28;19933;-73
2023/01/22 10:30:14;;;;;;;3.28;2.45;;;;;;;-2.39;98.11;103913.78;4973984;28;20518;-70
2023/01/22 10:32:39;;;;;;;2.30;2.10;;;;;;;-2.46;97.98;103906.84;4974322;28;20031;-71
2023/01/22 10:35:10;;;;;;;1.90;1.80;;;;;;;-2.45;97.60;103910.31;4980781;28;20031;-72
2023/01/22 10:37:50;;;;;;;2.83;2.63;;;;;;;-2.69;97.92;103886.00;4990858;28;20027;-73
2023/01/22 10:40:33;;;;;;;2.83;2.63;;;;;;;-2.62;98.04;103910.34;4989867;28;20027;-75
2023/01/22 10:43:05;;;;;;;2.10;2.00;;;;;;;-2.68;98.83;103907.72;4961398;28;20030;-73
2023/01/22 10:45:30;;;;;;;2.80;2.50;;;;;;;-2.65;98.37;103905.13;4949971;28;20113;-72
2023/01/22 10:48:03;;;;;;;1.90;1.80;;;;;;;-2.59;99.49;103907.75;4973040;28;20134;-79
2023/01/22 10:50:29;;;;;;;2.47;2.28;;;;;;;-2.49;99.07;103914.69;4940559;28;20039;-70
2023/01/22 10:52:58;;;;;;;8.10;5.83;;;;;;;-2.51;98.75;103892.94;4973439;28;20376;-77
2023/01/22 10:55:30;;;;;;;2.80;2.60;;;;;;;-2.33;98.49;103903.34;4940961;28;20027;-79
2023/01/22 10:58:03;;;;;;;2.50;2.30;;;;;;;-2.26;98.05;103905.09;4974409;28;20034;-73
2023/01/22 11:00:34;;;;;;;3.60;3.03;;;;;;;-2.28;97.88;103919.00;4956661;28;20352;-76
2023/01/22 11:03:00;;;;;;;3.72;2.55;;;;;;;-2.37;98.51;103916.41;4973683;28;20050;-76
2023/01/22 11:05:31;;;;;;;2.50;2.30;;;;;;;-2.26;98.42;103923.34;4956948;28;20382;-78
2023/01/22 11:08:00;;;;;;;2.90;2.65;;;;;;;-2.22;98.33;103922.47;4974420;28;20096;-74
2023/01/22 11:10:44;;;;;;;3.70;2.63;;;;;;;-2.10;97.59;103920.69;4955899;28;20037;-78
2023/01/22 11:13:44;;;;;;;2.50;2.28;;;;;;;-2.10;97.65;103923.31;4973843;28;20030;-74
2023/01/22 11:16:17;;;;;;;2.95;2.65;;;;;;;-2.31;97.53;103909.44;4972842;28;20042;-74
2023/01/22 11:18:50;;;;;;;2.40;2.15;;;;;;;-2.47;98.02;103915.56;4973284;28;20462;-75
2023/01/22 11:21:29;;;;;;;3.55;2.35;;;;;;;-2.53;99.00;103920.78;4974166;28;20037;-76
2023/01/22 11:24:15;;;;;;;2.17;1.98;;;;;;;-2.54;98.21;103919.03;4973645;28;20023;-74
2023/01/22 11:27:08;;;;;;;2.17;2.08;;;;;;;-2.56;98.40;103916.44;4973675;28;20123;-77
2023/01/22 11:29:52;;;;;;;3.65;2.00;;;;;;;-2.61;98.66;103912.06;4973155;28;20038;-73
2023/01/22 11:33:08;;;;;;;3.72;2.50;;;;;;;-2.55;98.90;103912.09;4973403;28;20058;-80
2023/01/22 11:35:40;;;;;;;3.00;2.20;;;;;;;-2.61;98.92;103922.50;4913922;29;20047;-77